sensor_id;sensor_type;location;lat;lon;timestamp;P1;durP1;ratioP1;P2;durP2;ratioP2
56523;SDS011;42422;47.540;18.712;2023-03-19T00:01:06;10.10;;;4.95;;
56523;SDS011;42422;47.540;18.712;2023-03-19T00:04:31;8.98;;;5.38;;
56523;SDS011;42422;47.540;18.712;2023-03-19T00:07:55;9.63;;;4.82;;
56523;SDS011;42422;47.540;18.712;2023-03-19T00:11:25;8.68;;;4.63;;
56523;SDS011;42422;47.540;18.712;2023-03-19T00:14:49;10.85;;;5.47;;
56523;SDS011;42422;47.540;18.712;2023-03-19T00:18:13;15.00;;;5.95;;
56523;SDS011;42422;47.540;18.712;2023-03-19T00:21:42;10.82;;;5.88;;
56523;SDS011;42422;47.540;18.712;2023-03-19T00:25:07;14.43;;;6.45;;
56523;SDS011;42422;47.540;18.712;2023-03-19T00:28:32;15.48;;;6.03;;
56523;SDS011;42422;47.540;18.712;2023-03-19T00:32:01;11.55;;;5.75;;
56523;SDS011;42422;47.540;18.712;2023-03-19T00:35:27;16.25;;;6.18;;
56523;SDS011;42422;47.540;18.712;2023-03-19T00:38:52;12.75;;;5.85;;
56523;SDS011;42422;47.540;18.712;2023-03-19T00:42:22;10.20;;;5.60;;
56523;SDS011;42422;47.540;18.712;2023-03-19T00:45:46;12.52;;;5.68;;
56523;SDS011;42422;47.540;18.712;2023-03-19T00:49:11;12.57;;;6.45;;
56523;SDS011;42422;47.540;18.712;2023-03-19T00:52:35;13.63;;;6.45;;
56523;SDS011;42422;47.540;18.712;2023-03-19T00:56:06;9.88;;;5.78;;
56523;SDS011;42422;47.540;18.712;2023-03-19T00:59:32;10.02;;;5.82;;
56523;SDS011;42422;47.540;18.712;2023-03-19T01:03:01;11.13;;;5.20;;
56523;SDS011;42422;47.540;18.712;2023-03-19T01:06:25;10.70;;;5.20;;
56523;SDS011;42422;47.540;18.712;2023-03-19T01:09:55;13.40;;;5.38;;
56523;SDS011;42422;47.540;18.712;2023-03-19T01:13:19;12.20;;;4.78;;
56523;SDS011;42422;47.540;18.712;2023-03-19T01:16:43;12.35;;;5.72;;
56523;SDS011;42422;47.540;18.712;2023-03-19T01:20:08;15.25;;;6.22;;
56523;SDS011;42422;47.540;18.712;2023-03-19T01:23:32;12.25;;;5.22;;
56523;SDS011;42422;47.540;18.712;2023-03-19T01:26:56;11.00;;;6.00;;
56523;SDS011;42422;47.540;18.712;2023-03-19T01:30:25;12.70;;;5.97;;
56523;SDS011;42422;47.540;18.712;2023-03-19T01:33:49;21.73;;;7.72;;
56523;SDS011;42422;47.540;18.712;2023-03-19T01:37:13;16.60;;;6.75;;
56523;SDS011;42422;47.540;18.712;2023-03-19T01:40:42;12.05;;;6.95;;
56523;SDS011;42422;47.540;18.712;2023-03-19T01:47:56;14.45;;;7.53;;
56523;SDS011;42422;47.540;18.712;2023-03-19T01:51:26;14.52;;;7.40;;
56523;SDS011;42422;47.540;18.712;2023-03-19T01:54:52;10.82;;;5.47;;
56523;SDS011;42422;47.540;18.712;2023-03-19T01:58:39;13.13;;;6.03;;
56523;SDS011;42422;47.540;18.712;2023-03-19T02:02:15;10.27;;;5.97;;
56523;SDS011;42422;47.540;18.712;2023-03-19T02:05:42;10.18;;;5.47;;
56523;SDS011;42422;47.540;18.712;2023-03-19T02:09:13;10.57;;;5.60;;
56523;SDS011;42422;47.540;18.712;2023-03-19T02:12:38;11.55;;;5.95;;
56523;SDS011;42422;47.540;18.712;2023-03-19T02:16:02;16.60;;;6.47;;
56523;SDS011;42422;47.540;18.712;2023-03-19T02:19:35;11.27;;;6.15;;
56523;SDS011;42422;47.540;18.712;2023-03-19T02:26:49;8.07;;;5.33;;
56523;SDS011;42422;47.540;18.712;2023-03-19T02:30:23;11.20;;;5.45;;
56523;SDS011;42422;47.540;18.712;2023-03-19T02:34:01;12.02;;;4.80;;
56523;SDS011;42422;47.540;18.712;2023-03-19T02:37:26;12.13;;;5.50;;
56523;SDS011;42422;47.540;18.712;2023-03-19T02:41:02;12.47;;;6.20;;
56523;SDS011;42422;47.540;18.712;2023-03-19T02:44:26;14.83;;;6.30;;
56523;SDS011;42422;47.540;18.712;2023-03-19T02:47:52;9.23;;;5.37;;
56523;SDS011;42422;47.540;18.712;2023-03-19T02:51:20;10.90;;;5.43;;
56523;SDS011;42422;47.540;18.712;2023-03-19T02:58:23;8.93;;;4.70;;
56523;SDS011;42422;47.540;18.712;2023-03-19T03:01:50;14.23;;;6.43;;
56523;SDS011;42422;47.540;18.712;2023-03-19T03:05:14;10.73;;;6.67;;
56523;SDS011;42422;47.540;18.712;2023-03-19T03:09:03;10.77;;;5.63;;
56523;SDS011;42422;47.540;18.712;2023-03-19T03:12:35;11.80;;;5.23;;
56523;SDS011;42422;47.540;18.712;2023-03-19T03:16:07;12.57;;;6.77;;
56523;SDS011;42422;47.540;18.712;2023-03-19T03:19:32;11.07;;;6.23;;
56523;SDS011;42422;47.540;18.712;2023-03-19T03:23:05;15.63;;;5.93;;
56523;SDS011;42422;47.540;18.712;2023-03-19T03:26:38;11.67;;;5.87;;
56523;SDS011;42422;47.540;18.712;2023-03-19T03:30:27;10.77;;;5.77;;
56523;SDS011;42422;47.540;18.712;2023-03-19T03:33:52;9.67;;;4.97;;
56523;SDS011;42422;47.540;18.712;2023-03-19T03:37:22;8.03;;;5.17;;
56523;SDS011;42422;47.540;18.712;2023-03-19T03:40:50;11.37;;;5.77;;
56523;SDS011;42422;47.540;18.712;2023-03-19T03:44:19;14.60;;;5.50;;
56523;SDS011;42422;47.540;18.712;2023-03-19T03:48:05;11.13;;;5.73;;
56523;SDS011;42422;47.540;18.712;2023-03-19T03:51:45;9.73;;;4.73;;
56523;SDS011;42422;47.540;18.712;2023-03-19T03:55:26;13.40;;;6.10;;
56523;SDS011;42422;47.540;18.712;2023-03-19T03:58:52;10.77;;;5.90;;
56523;SDS011;42422;47.540;18.712;2023-03-19T04:02:55;9.07;;;4.63;;
56523;SDS011;42422;47.540;18.712;2023-03-19T04:06:19;10.70;;;5.07;;
56523;SDS011;42422;47.540;18.712;2023-03-19T04:09:44;10.00;;;5.03;;
56523;SDS011;42422;47.540;18.712;2023-03-19T04:13:10;7.40;;;4.60;;
56523;SDS011;42422;47.540;18.712;2023-03-19T04:16:34;14.17;;;5.70;;
56523;SDS011;42422;47.540;18.712;2023-03-19T04:19:59;11.20;;;5.67;;
56523;SDS011;42422;47.540;18.712;2023-03-19T04:23:29;8.47;;;4.30;;
56523;SDS011;42422;47.540;18.712;2023-03-19T04:26:53;9.63;;;5.30;;
56523;SDS011;42422;47.540;18.712;2023-03-19T04:30:17;11.47;;;5.00;;
56523;SDS011;42422;47.540;18.712;2023-03-19T04:33:47;11.13;;;6.03;;
56523;SDS011;42422;47.540;18.712;2023-03-19T04:37:10;12.83;;;6.20;;
56523;SDS011;42422;47.540;18.712;2023-03-19T04:40:35;8.10;;;4.17;;
56523;SDS011;42422;47.540;18.712;2023-03-19T04:44:04;9.85;;;4.40;;
56523;SDS011;42422;47.540;18.712;2023-03-19T04:47:29;8.50;;;5.00;;
56523;SDS011;42422;47.540;18.712;2023-03-19T04:50:53;8.50;;;4.10;;
56523;SDS011;42422;47.540;18.712;2023-03-19T04:54:22;7.07;;;4.22;;
56523;SDS011;42422;47.540;18.712;2023-03-19T04:57:48;17.53;;;5.17;;
56523;SDS011;42422;47.540;18.712;2023-03-19T05:01:12;7.43;;;4.47;;
56523;SDS011;42422;47.540;18.712;2023-03-19T05:04:42;9.30;;;4.77;;
56523;SDS011;42422;47.540;18.712;2023-03-19T05:08:07;12.43;;;5.17;;
56523;SDS011;42422;47.540;18.712;2023-03-19T05:11:31;7.37;;;4.30;;
56523;SDS011;42422;47.540;18.712;2023-03-19T05:14:56;6.93;;;4.10;;
56523;SDS011;42422;47.540;18.712;2023-03-19T05:18:26;13.03;;;4.20;;
56523;SDS011;42422;47.540;18.712;2023-03-19T05:21:50;8.03;;;3.77;;
56523;SDS011;42422;47.540;18.712;2023-03-19T05:25:18;7.10;;;3.60;;
56523;SDS011;42422;47.540;18.712;2023-03-19T05:28:42;9.97;;;5.07;;
56523;SDS011;42422;47.540;18.712;2023-03-19T05:32:07;8.07;;;4.27;;
56523;SDS011;42422;47.540;18.712;2023-03-19T05:35:31;9.13;;;4.20;;
56523;SDS011;42422;47.540;18.712;2023-03-19T05:38:55;11.07;;;5.10;;
56523;SDS011;42422;47.540;18.712;2023-03-19T05:42:19;7.60;;;4.73;;
56523;SDS011;42422;47.540;18.712;2023-03-19T05:45:48;8.27;;;4.37;;
56523;SDS011;42422;47.540;18.712;2023-03-19T05:49:12;8.45;;;4.30;;
56523;SDS011;42422;47.540;18.712;2023-03-19T05:52:40;8.17;;;4.13;;
56523;SDS011;42422;47.540;18.712;2023-03-19T05:56:05;9.07;;;4.90;;
56523;SDS011;42422;47.540;18.712;2023-03-19T05:59:29;7.03;;;4.07;;
56523;SDS011;42422;47.540;18.712;2023-03-19T06:02:58;6.72;;;4.05;;
56523;SDS011;42422;47.540;18.712;2023-03-19T06:06:22;6.70;;;3.72;;
56523;SDS011;42422;47.540;18.712;2023-03-19T06:09:47;6.50;;;3.50;;
56523;SDS011;42422;47.540;18.712;2023-03-19T06:13:32;7.03;;;4.18;;
56523;SDS011;42422;47.540;18.712;2023-03-19T06:17:03;8.65;;;4.10;;
56523;SDS011;42422;47.540;18.712;2023-03-19T06:20:27;9.32;;;4.15;;
56523;SDS011;42422;47.540;18.712;2023-03-19T06:23:56;7.05;;;4.32;;
56523;SDS011;42422;47.540;18.712;2023-03-19T06:27:24;6.57;;;3.25;;
56523;SDS011;42422;47.540;18.712;2023-03-19T06:30:48;9.23;;;3.88;;
56523;SDS011;42422;47.540;18.712;2023-03-19T06:34:15;6.70;;;3.55;;
56523;SDS011;42422;47.540;18.712;2023-03-19T06:37:41;6.97;;;3.40;;
56523;SDS011;42422;47.540;18.712;2023-03-19T06:41:06;6.07;;;3.53;;
56523;SDS011;42422;47.540;18.712;2023-03-19T06:44:31;7.72;;;3.97;;
56523;SDS011;42422;47.540;18.712;2023-03-19T06:47:55;6.60;;;4.53;;
56523;SDS011;42422;47.540;18.712;2023-03-19T06:51:20;8.02;;;3.33;;
56523;SDS011;42422;47.540;18.712;2023-03-19T06:54:48;15.38;;;3.78;;
56523;SDS011;42422;47.540;18.712;2023-03-19T06:58:12;6.80;;;3.35;;
56523;SDS011;42422;47.540;18.712;2023-03-19T07:01:38;7.22;;;3.20;;
56523;SDS011;42422;47.540;18.712;2023-03-19T07:05:08;4.72;;;2.75;;
56523;SDS011;42422;47.540;18.712;2023-03-19T07:08:32;9.70;;;3.90;;
56523;SDS011;42422;47.540;18.712;2023-03-19T07:11:56;5.00;;;2.53;;
56523;SDS011;42422;47.540;18.712;2023-03-19T07:15:20;6.97;;;3.58;;
56523;SDS011;42422;47.540;18.712;2023-03-19T07:18:45;6.72;;;2.72;;
56523;SDS011;42422;47.540;18.712;2023-03-19T07:22:11;5.07;;;3.15;;
56523;SDS011;42422;47.540;18.712;2023-03-19T07:25:41;4.75;;;3.10;;
56523;SDS011;42422;47.540;18.712;2023-03-19T07:29:06;7.82;;;3.45;;
56523;SDS011;42422;47.540;18.712;2023-03-19T07:32:31;6.18;;;3.65;;
56523;SDS011;42422;47.540;18.712;2023-03-19T07:35:55;8.13;;;3.05;;
56523;SDS011;42422;47.540;18.712;2023-03-19T07:39:26;8.13;;;5.32;;
56523;SDS011;42422;47.540;18.712;2023-03-19T07:43:11;8.77;;;4.30;;
56523;SDS011;42422;47.540;18.712;2023-03-19T07:46:35;5.80;;;3.20;;
56523;SDS011;42422;47.540;18.712;2023-03-19T07:49:59;6.20;;;3.22;;
56523;SDS011;42422;47.540;18.712;2023-03-19T07:53:29;7.28;;;3.30;;
56523;SDS011;42422;47.540;18.712;2023-03-19T07:56:54;5.47;;;3.33;;
56523;SDS011;42422;47.540;18.712;2023-03-19T08:00:24;4.40;;;2.72;;
56523;SDS011;42422;47.540;18.712;2023-03-19T08:03:49;5.60;;;3.28;;
56523;SDS011;42422;47.540;18.712;2023-03-19T08:07:13;8.23;;;3.95;;
56523;SDS011;42422;47.540;18.712;2023-03-19T08:10:44;5.63;;;2.53;;
56523;SDS011;42422;47.540;18.712;2023-03-19T08:14:08;3.67;;;2.90;;
56523;SDS011;42422;47.540;18.712;2023-03-19T08:17:33;7.25;;;3.08;;
56523;SDS011;42422;47.540;18.712;2023-03-19T08:21:02;5.82;;;3.25;;
56523;SDS011;42422;47.540;18.712;2023-03-19T08:24:26;6.00;;;3.67;;
56523;SDS011;42422;47.540;18.712;2023-03-19T08:27:51;6.10;;;3.13;;
56523;SDS011;42422;47.540;18.712;2023-03-19T08:31:23;6.25;;;3.17;;
56523;SDS011;42422;47.540;18.712;2023-03-19T08:34:50;9.38;;;3.55;;
56523;SDS011;42422;47.540;18.712;2023-03-19T08:38:14;6.68;;;3.40;;
56523;SDS011;42422;47.540;18.712;2023-03-19T08:41:39;5.82;;;3.33;;
56523;SDS011;42422;47.540;18.712;2023-03-19T08:45:09;7.20;;;3.30;;
56523;SDS011;42422;47.540;18.712;2023-03-19T08:48:35;5.47;;;3.30;;
56523;SDS011;42422;47.540;18.712;2023-03-19T08:52:00;8.38;;;3.53;;
56523;SDS011;42422;47.540;18.712;2023-03-19T08:55:26;5.30;;;3.15;;
56523;SDS011;42422;47.540;18.712;2023-03-19T08:58:50;4.05;;;2.38;;
56523;SDS011;42422;47.540;18.712;2023-03-19T09:02:16;5.57;;;2.35;;
56523;SDS011;42422;47.540;18.712;2023-03-19T09:05:41;5.40;;;3.15;;
56523;SDS011;42422;47.540;18.712;2023-03-19T09:09:05;4.57;;;2.88;;
56523;SDS011;42422;47.540;18.712;2023-03-19T09:12:34;5.03;;;2.38;;
56523;SDS011;42422;47.540;18.712;2023-03-19T09:15:59;5.35;;;2.67;;
56523;SDS011;42422;47.540;18.712;2023-03-19T09:19:23;6.63;;;3.22;;
56523;SDS011;42422;47.540;18.712;2023-03-19T09:22:52;5.25;;;2.63;;
56523;SDS011;42422;47.540;18.712;2023-03-19T09:26:19;4.18;;;2.60;;
56523;SDS011;42422;47.540;18.712;2023-03-19T09:29:46;4.43;;;3.05;;
56523;SDS011;42422;47.540;18.712;2023-03-19T09:33:13;5.93;;;2.78;;
56523;SDS011;42422;47.540;18.712;2023-03-19T09:36:49;6.07;;;3.75;;
56523;SDS011;42422;47.540;18.712;2023-03-19T09:40:20;5.43;;;2.75;;
56523;SDS011;42422;47.540;18.712;2023-03-19T09:47:35;5.78;;;2.90;;
56523;SDS011;42422;47.540;18.712;2023-03-19T09:51:04;4.97;;;2.80;;
56523;SDS011;42422;47.540;18.712;2023-03-19T09:54:48;6.55;;;3.28;;
56523;SDS011;42422;47.540;18.712;2023-03-19T09:58:27;5.70;;;3.03;;
56523;SDS011;42422;47.540;18.712;2023-03-19T10:02:02;4.70;;;3.00;;
56523;SDS011;42422;47.540;18.712;2023-03-19T10:17:19;4.60;;;3.70;;
56523;SDS011;42422;47.540;18.712;2023-03-19T10:21:29;4.55;;;2.92;;
56523;SDS011;42422;47.540;18.712;2023-03-19T10:24:50;5.32;;;3.25;;
56523;SDS011;42422;47.540;18.712;2023-03-19T10:28:16;5.60;;;3.75;;
56523;SDS011;42422;47.540;18.712;2023-03-19T10:32:05;6.60;;;4.03;;
56523;SDS011;42422;47.540;18.712;2023-03-19T10:35:38;4.53;;;3.20;;
56523;SDS011;42422;47.540;18.712;2023-03-19T10:39:22;8.27;;;4.00;;
56523;SDS011;42422;47.540;18.712;2023-03-19T10:43:23;6.63;;;3.20;;
56523;SDS011;42422;47.540;18.712;2023-03-19T10:47:08;5.28;;;3.03;;
56523;SDS011;42422;47.540;18.712;2023-03-19T10:54:24;5.18;;;3.28;;
56523;SDS011;42422;47.540;18.712;2023-03-19T10:58:19;5.18;;;3.30;;
56523;SDS011;42422;47.540;18.712;2023-03-19T11:06:18;7.38;;;3.72;;
56523;SDS011;42422;47.540;18.712;2023-03-19T11:09:49;6.55;;;3.92;;
56523;SDS011;42422;47.540;18.712;2023-03-19T11:13:25;4.93;;;2.97;;
56523;SDS011;42422;47.540;18.712;2023-03-19T11:21:41;3.90;;;3.00;;
56523;SDS011;42422;47.540;18.712;2023-03-19T11:25:22;5.65;;;3.47;;
56523;SDS011;42422;47.540;18.712;2023-03-19T11:28:51;5.20;;;3.55;;
56523;SDS011;42422;47.540;18.712;2023-03-19T11:32:22;5.30;;;3.47;;
56523;SDS011;42422;47.540;18.712;2023-03-19T11:50:49;4.85;;;3.85;;
56523;SDS011;42422;47.540;18.712;2023-03-19T12:05:53;5.15;;;3.30;;
56523;SDS011;42422;47.540;18.712;2023-03-19T12:09:21;5.80;;;3.15;;
56523;SDS011;42422;47.540;18.712;2023-03-19T12:13:03;7.95;;;3.75;;
56523;SDS011;42422;47.540;18.712;2023-03-19T12:17:01;9.85;;;3.47;;
56523;SDS011;42422;47.540;18.712;2023-03-19T12:27:59;9.80;;;3.53;;
56523;SDS011;42422;47.540;18.712;2023-03-19T12:35:49;6.70;;;3.30;;
56523;SDS011;42422;47.540;18.712;2023-03-19T12:39:19;7.43;;;3.85;;
56523;SDS011;42422;47.540;18.712;2023-03-19T12:42:57;7.40;;;3.55;;
56523;SDS011;42422;47.540;18.712;2023-03-19T12:46:33;7.20;;;3.50;;
56523;SDS011;42422;47.540;18.712;2023-03-19T12:50:02;8.35;;;4.38;;
56523;SDS011;42422;47.540;18.712;2023-03-19T12:57:44;5.97;;;3.58;;
56523;SDS011;42422;47.540;18.712;2023-03-19T13:01:05;4.28;;;3.20;;
56523;SDS011;42422;47.540;18.712;2023-03-19T13:04:56;5.53;;;3.35;;
56523;SDS011;42422;47.540;18.712;2023-03-19T13:08:30;8.52;;;3.50;;
56523;SDS011;42422;47.540;18.712;2023-03-19T13:12:24;7.68;;;3.90;;
56523;SDS011;42422;47.540;18.712;2023-03-19T13:15:50;6.65;;;3.65;;
56523;SDS011;42422;47.540;18.712;2023-03-19T13:19:29;7.38;;;3.80;;
56523;SDS011;42422;47.540;18.712;2023-03-19T13:23:11;4.88;;;3.35;;
56523;SDS011;42422;47.540;18.712;2023-03-19T13:26:40;6.30;;;3.50;;
56523;SDS011;42422;47.540;18.712;2023-03-19T13:37:44;7.65;;;3.60;;
56523;SDS011;42422;47.540;18.712;2023-03-19T13:48:57;6.40;;;3.95;;
56523;SDS011;42422;47.540;18.712;2023-03-19T13:56:08;4.90;;;3.15;;
56523;SDS011;42422;47.540;18.712;2023-03-19T13:59:42;5.63;;;3.00;;
56523;SDS011;42422;47.540;18.712;2023-03-19T14:03:15;7.00;;;3.95;;
56523;SDS011;42422;47.540;18.712;2023-03-19T14:06:44;5.50;;;3.38;;
56523;SDS011;42422;47.540;18.712;2023-03-19T14:10:14;5.22;;;3.42;;
56523;SDS011;42422;47.540;18.712;2023-03-19T14:13:46;6.80;;;3.40;;
56523;SDS011;42422;47.540;18.712;2023-03-19T14:17:18;9.70;;;3.67;;
56523;SDS011;42422;47.540;18.712;2023-03-19T14:24:38;6.60;;;3.53;;
56523;SDS011;42422;47.540;18.712;2023-03-19T14:28:27;5.65;;;3.55;;
56523;SDS011;42422;47.540;18.712;2023-03-19T14:31:56;7.93;;;3.60;;
56523;SDS011;42422;47.540;18.712;2023-03-19T14:35:26;5.47;;;3.88;;
56523;SDS011;42422;47.540;18.712;2023-03-19T14:46:49;5.97;;;3.55;;
56523;SDS011;42422;47.540;18.712;2023-03-19T14:50:46;6.68;;;3.22;;
56523;SDS011;42422;47.540;18.712;2023-03-19T14:54:58;6.30;;;4.07;;
56523;SDS011;42422;47.540;18.712;2023-03-19T14:58:23;6.47;;;3.83;;
56523;SDS011;42422;47.540;18.712;2023-03-19T15:01:51;5.55;;;3.65;;
56523;SDS011;42422;47.540;18.712;2023-03-19T15:09:05;6.28;;;3.88;;
56523;SDS011;42422;47.540;18.712;2023-03-19T15:19:47;5.55;;;3.45;;
56523;SDS011;42422;47.540;18.712;2023-03-19T15:23:19;6.72;;;3.47;;
56523;SDS011;42422;47.540;18.712;2023-03-19T15:26:48;6.32;;;3.88;;
56523;SDS011;42422;47.540;18.712;2023-03-19T15:33:48;6.70;;;3.58;;
56523;SDS011;42422;47.540;18.712;2023-03-19T15:37:12;4.75;;;3.03;;
56523;SDS011;42422;47.540;18.712;2023-03-19T15:40:44;5.40;;;2.90;;
56523;SDS011;42422;47.540;18.712;2023-03-19T15:44:25;5.47;;;3.15;;
56523;SDS011;42422;47.540;18.712;2023-03-19T15:47:57;6.25;;;2.85;;
56523;SDS011;42422;47.540;18.712;2023-03-19T15:51:30;7.00;;;2.97;;
56523;SDS011;42422;47.540;18.712;2023-03-19T15:55:02;3.75;;;2.85;;
56523;SDS011;42422;47.540;18.712;2023-03-19T15:58:28;8.60;;;4.43;;
56523;SDS011;42422;47.540;18.712;2023-03-19T16:01:59;5.68;;;3.85;;
56523;SDS011;42422;47.540;18.712;2023-03-19T16:05:25;6.80;;;3.65;;
56523;SDS011;42422;47.540;18.712;2023-03-19T16:09:05;9.02;;;5.90;;
56523;SDS011;42422;47.540;18.712;2023-03-19T16:12:48;8.75;;;5.75;;
56523;SDS011;42422;47.540;18.712;2023-03-19T16:16:44;7.32;;;5.55;;
56523;SDS011;42422;47.540;18.712;2023-03-19T16:20:11;11.65;;;5.63;;
56523;SDS011;42422;47.540;18.712;2023-03-19T16:23:43;5.63;;;3.88;;
56523;SDS011;42422;47.540;18.712;2023-03-19T16:27:34;6.28;;;3.90;;
56523;SDS011;42422;47.540;18.712;2023-03-19T16:30:59;7.28;;;3.47;;
56523;SDS011;42422;47.540;18.712;2023-03-19T16:34:36;5.88;;;3.72;;
56523;SDS011;42422;47.540;18.712;2023-03-19T16:38:12;9.80;;;5.38;;
56523;SDS011;42422;47.540;18.712;2023-03-19T16:45:44;8.20;;;5.18;;
56523;SDS011;42422;47.540;18.712;2023-03-19T16:49:36;12.02;;;4.53;;
56523;SDS011;42422;47.540;18.712;2023-03-19T16:56:51;7.05;;;3.85;;
56523;SDS011;42422;47.540;18.712;2023-03-19T17:00:32;6.68;;;3.72;;
56523;SDS011;42422;47.540;18.712;2023-03-19T17:03:57;6.03;;;4.22;;
56523;SDS011;42422;47.540;18.712;2023-03-19T17:07:23;8.90;;;4.25;;
56523;SDS011;42422;47.540;18.712;2023-03-19T17:10:50;9.93;;;5.00;;
56523;SDS011;42422;47.540;18.712;2023-03-19T17:14:18;11.95;;;6.03;;
56523;SDS011;42422;47.540;18.712;2023-03-19T17:18:15;12.35;;;6.47;;
56523;SDS011;42422;47.540;18.712;2023-03-19T17:21:42;29.33;;;13.95;;
56523;SDS011;42422;47.540;18.712;2023-03-19T17:25:12;28.92;;;15.48;;
56523;SDS011;42422;47.540;18.712;2023-03-19T17:28:55;28.80;;;15.80;;
56523;SDS011;42422;47.540;18.712;2023-03-19T17:32:49;30.40;;;12.88;;
56523;SDS011;42422;47.540;18.712;2023-03-19T17:36:18;22.10;;;10.77;;
56523;SDS011;42422;47.540;18.712;2023-03-19T17:39:43;25.70;;;11.23;;
56523;SDS011;42422;47.540;18.712;2023-03-19T17:43:08;17.70;;;9.95;;
56523;SDS011;42422;47.540;18.712;2023-03-19T17:46:43;19.93;;;10.70;;
56523;SDS011;42422;47.540;18.712;2023-03-19T17:50:19;22.63;;;11.93;;
56523;SDS011;42422;47.540;18.712;2023-03-19T17:53:50;23.95;;;12.63;;
56523;SDS011;42422;47.540;18.712;2023-03-19T17:57:17;33.13;;;16.35;;
56523;SDS011;42422;47.540;18.712;2023-03-19T18:00:44;23.92;;;14.30;;
56523;SDS011;42422;47.540;18.712;2023-03-19T18:04:17;28.95;;;13.40;;
56523;SDS011;42422;47.540;18.712;2023-03-19T18:07:44;25.90;;;12.38;;
56523;SDS011;42422;47.540;18.712;2023-03-19T18:11:11;21.60;;;11.88;;
56523;SDS011;42422;47.540;18.712;2023-03-19T18:14:37;20.60;;;10.75;;
56523;SDS011;42422;47.540;18.712;2023-03-19T18:18:03;20.50;;;10.55;;
56523;SDS011;42422;47.540;18.712;2023-03-19T18:21:28;22.88;;;10.93;;
56523;SDS011;42422;47.540;18.712;2023-03-19T18:24:54;21.10;;;9.98;;
56523;SDS011;42422;47.540;18.712;2023-03-19T18:28:28;20.77;;;9.43;;
56523;SDS011;42422;47.540;18.712;2023-03-19T18:31:58;20.48;;;10.40;;
56523;SDS011;42422;47.540;18.712;2023-03-19T18:38:51;20.80;;;8.90;;
56523;SDS011;42422;47.540;18.712;2023-03-19T18:42:18;17.90;;;8.95;;
56523;SDS011;42422;47.540;18.712;2023-03-19T18:45:44;14.15;;;8.50;;
56523;SDS011;42422;47.540;18.712;2023-03-19T18:49:18;15.88;;;9.77;;
56523;SDS011;42422;47.540;18.712;2023-03-19T18:52:47;21.77;;;10.40;;
56523;SDS011;42422;47.540;18.712;2023-03-19T18:56:17;19.80;;;10.73;;
56523;SDS011;42422;47.540;18.712;2023-03-19T18:59:42;21.42;;;10.00;;
56523;SDS011;42422;47.540;18.712;2023-03-19T19:03:13;21.30;;;10.65;;
56523;SDS011;42422;47.540;18.712;2023-03-19T19:06:40;26.13;;;10.70;;
56523;SDS011;42422;47.540;18.712;2023-03-19T19:10:24;19.83;;;10.15;;
56523;SDS011;42422;47.540;18.712;2023-03-19T19:13:53;16.48;;;7.80;;
56523;SDS011;42422;47.540;18.712;2023-03-19T19:17:20;18.33;;;8.95;;
56523;SDS011;42422;47.540;18.712;2023-03-19T19:20:49;13.88;;;7.00;;
56523;SDS011;42422;47.540;18.712;2023-03-19T19:24:14;11.65;;;6.72;;
56523;SDS011;42422;47.540;18.712;2023-03-19T19:27:40;8.98;;;5.82;;
56523;SDS011;42422;47.540;18.712;2023-03-19T19:31:18;10.52;;;6.47;;
56523;SDS011;42422;47.540;18.712;2023-03-19T19:34:46;15.55;;;7.25;;
56523;SDS011;42422;47.540;18.712;2023-03-19T19:38:17;16.13;;;7.28;;
56523;SDS011;42422;47.540;18.712;2023-03-19T19:41:43;11.43;;;7.13;;
56523;SDS011;42422;47.540;18.712;2023-03-19T19:45:25;17.00;;;8.45;;
56523;SDS011;42422;47.540;18.712;2023-03-19T19:48:53;14.98;;;6.97;;
56523;SDS011;42422;47.540;18.712;2023-03-19T19:52:20;13.30;;;7.13;;
56523;SDS011;42422;47.540;18.712;2023-03-19T19:55:47;12.60;;;6.90;;
56523;SDS011;42422;47.540;18.712;2023-03-19T19:59:14;14.10;;;7.25;;
56523;SDS011;42422;47.540;18.712;2023-03-19T20:02:43;14.05;;;7.68;;
56523;SDS011;42422;47.540;18.712;2023-03-19T20:06:13;11.05;;;7.38;;
56523;SDS011;42422;47.540;18.712;2023-03-19T20:09:39;13.52;;;7.13;;
56523;SDS011;42422;47.540;18.712;2023-03-19T20:13:05;12.40;;;6.35;;
56523;SDS011;42422;47.540;18.712;2023-03-19T20:16:55;14.60;;;7.15;;
56523;SDS011;42422;47.540;18.712;2023-03-19T20:20:26;14.70;;;6.88;;
56523;SDS011;42422;47.540;18.712;2023-03-19T20:23:54;13.77;;;6.80;;
56523;SDS011;42422;47.540;18.712;2023-03-19T20:27:29;13.73;;;7.53;;
56523;SDS011;42422;47.540;18.712;2023-03-19T20:31:00;13.68;;;7.45;;
56523;SDS011;42422;47.540;18.712;2023-03-19T20:34:27;23.38;;;7.90;;
56523;SDS011;42422;47.540;18.712;2023-03-19T20:37:54;13.75;;;7.10;;
56523;SDS011;42422;47.540;18.712;2023-03-19T20:41:25;31.92;;;14.90;;
56523;SDS011;42422;47.540;18.712;2023-03-19T20:44:53;29.27;;;12.60;;
56523;SDS011;42422;47.540;18.712;2023-03-19T20:48:21;17.50;;;10.23;;
56523;SDS011;42422;47.540;18.712;2023-03-19T20:51:55;18.92;;;8.80;;
56523;SDS011;42422;47.540;18.712;2023-03-19T20:55:29;17.40;;;7.43;;
56523;SDS011;42422;47.540;18.712;2023-03-19T20:58:54;13.20;;;6.93;;
56523;SDS011;42422;47.540;18.712;2023-03-19T21:02:21;11.98;;;6.45;;
56523;SDS011;42422;47.540;18.712;2023-03-19T21:05:50;10.75;;;6.28;;
56523;SDS011;42422;47.540;18.712;2023-03-19T21:09:15;10.93;;;5.78;;
56523;SDS011;42422;47.540;18.712;2023-03-19T21:12:55;12.63;;;5.72;;
56523;SDS011;42422;47.540;18.712;2023-03-19T21:16:23;11.88;;;6.88;;
56523;SDS011;42422;47.540;18.712;2023-03-19T21:19:55;11.73;;;6.28;;
56523;SDS011;42422;47.540;18.712;2023-03-19T21:23:29;12.77;;;7.13;;
56523;SDS011;42422;47.540;18.712;2023-03-19T21:26:55;13.30;;;6.82;;
56523;SDS011;42422;47.540;18.712;2023-03-19T21:30:25;10.65;;;6.47;;
56523;SDS011;42422;47.540;18.712;2023-03-19T21:33:54;12.80;;;6.40;;
56523;SDS011;42422;47.540;18.712;2023-03-19T21:37:18;10.45;;;5.80;;
56523;SDS011;42422;47.540;18.712;2023-03-19T21:40:49;17.65;;;6.65;;
56523;SDS011;42422;47.540;18.712;2023-03-19T21:44:17;16.45;;;7.75;;
56523;SDS011;42422;47.540;18.712;2023-03-19T21:48:35;15.57;;;8.93;;
56523;SDS011;42422;47.540;18.712;2023-03-19T21:51:46;21.95;;;10.63;;
56523;SDS011;42422;47.540;18.712;2023-03-19T21:55:16;12.60;;;7.25;;
56523;SDS011;42422;47.540;18.712;2023-03-19T21:58:46;10.63;;;6.97;;
56523;SDS011;42422;47.540;18.712;2023-03-19T22:05:49;10.27;;;6.55;;
56523;SDS011;42422;47.540;18.712;2023-03-19T22:09:20;13.60;;;6.53;;
56523;SDS011;42422;47.540;18.712;2023-03-19T22:12:47;13.48;;;6.13;;
56523;SDS011;42422;47.540;18.712;2023-03-19T22:16:21;12.63;;;6.88;;
56523;SDS011;42422;47.540;18.712;2023-03-19T22:19:46;11.85;;;6.38;;
56523;SDS011;42422;47.540;18.712;2023-03-19T22:23:17;9.77;;;5.82;;
56523;SDS011;42422;47.540;18.712;2023-03-19T22:26:42;12.05;;;6.00;;
56523;SDS011;42422;47.540;18.712;2023-03-19T22:30:29;9.48;;;5.32;;
56523;SDS011;42422;47.540;18.712;2023-03-19T22:33:57;14.43;;;6.22;;
56523;SDS011;42422;47.540;18.712;2023-03-19T22:37:25;13.73;;;5.82;;
56523;SDS011;42422;47.540;18.712;2023-03-19T22:40:51;10.07;;;6.05;;
56523;SDS011;42422;47.540;18.712;2023-03-19T22:44:26;14.75;;;6.05;;
56523;SDS011;42422;47.540;18.712;2023-03-19T22:47:57;10.45;;;5.45;;
56523;SDS011;42422;47.540;18.712;2023-03-19T22:51:23;9.93;;;5.18;;
56523;SDS011;42422;47.540;18.712;2023-03-19T22:54:47;9.07;;;5.43;;
56523;SDS011;42422;47.540;18.712;2023-03-19T22:58:12;10.13;;;5.35;;
56523;SDS011;42422;47.540;18.712;2023-03-19T23:01:40;9.52;;;4.93;;